Time;durP1;ratioP1;P1;durP2;ratioP2;P2;SDS_P1;SDS_P2;PMS_P1;PMS_P2;Temp;Humidity;BMP_temperature;BMP_pressure;BME280_temperature;BME280_humidity;BME280_pressure;Samples;Min_cycle;Max_cycle;Signal;HPM_P1;HPM_P2
2021/04/03 00:00:25;;;;;;;6.82;0.98;;;6.50;72.50;;;;;;2081099;28;20029;-80
2021/04/03 00:01:25;;;;;;;4.97;1.20;;;6.50;72.50;;;;;;2087781;28;20025;-80
2021/04/03 00:02:27;;;;;;;4.88;1.02;;;6.50;72.50;;;;;;2085648;28;20029;-80
2021/04/03 00:03:29;;;;;;;4.28;1.00;;;6.50;72.50;;;;;;2089818;28;20033;-81
2021/04/03 00:04:29;;;;;;;4.93;1.35;;;6.50;72.50;;;;;;2082382;28;20025;-80
2021/04/03 00:05:32;;;;;;;5.22;1.00;;;6.50;72.50;;;;;;2088395;28;20047;-80
2021/04/03 00:06:33;;;;;;;6.15;1.25;;;6.50;72.60;;;;;;2071850;28;20029;-80
2021/04/03 00:07:34;;;;;;;3.67;0.80;;;6.50;72.50;;;;;;2080500;28;20033;-81
2021/04/03 00:08:35;;;;;;;5.47;0.80;;;6.60;72.60;;;;;;2083343;28;20025;-80
2021/04/03 00:09:36;;;;;;;5.22;1.00;;;6.60;72.50;;;;;;2076802;28;20037;-80
2021/04/03 00:10:51;;;;;;;4.38;1.15;;;6.60;72.50;;;;;;2063652;28;20030;-80
2021/04/03 00:11:52;;;;;;;4.25;0.75;;;6.60;72.50;;;;;;2067924;28;20045;-80
2021/04/03 00:12:53;;;;;;;6.18;0.95;;;6.60;72.40;;;;;;2064405;28;20030;-80
2021/04/03 00:13:54;;;;;;;4.65;0.98;;;6.60;73.00;;;;;;2065939;28;20122;-81
2021/04/03 00:14:54;;;;;;;3.42;0.80;;;6.60;72.30;;;;;;2076463;28;20391;-80
2021/04/03 00:15:56;;;;;;;3.00;0.80;;;6.60;72.30;;;;;;2075163;28;20037;-81
2021/04/03 00:16:57;;;;;;;3.88;0.82;;;6.60;72.30;;;;;;2088951;28;20033;-80
2021/04/03 00:17:58;;;;;;;5.50;1.08;;;6.60;72.30;;;;;;2081226;28;20545;-81
2021/04/03 00:18:58;;;;;;;4.65;0.85;;;6.60;72.30;;;;;;2072233;28;20083;-81
2021/04/03 00:19:59;;;;;;;3.88;0.90;;;6.50;72.30;;;;;;2080862;28;20128;-80
2021/04/03 00:21:00;;;;;;;3.92;0.80;;;6.60;72.40;;;;;;2073969;28;20041;-81
2021/04/03 00:22:01;;;;;;;5.63;0.90;;;6.60;72.40;;;;;;2080050;28;20037;-81
2021/04/03 00:23:05;;;;;;;6.18;1.35;;;6.60;72.30;;;;;;2080586;28;20460;-81
2021/04/03 00:24:06;;;;;;;5.68;1.10;;;6.60;72.40;;;;;;2075098;28;20085;-81
2021/04/03 00:25:07;;;;;;;4.53;0.98;;;6.60;72.40;;;;;;2065265;28;20030;-81
2021/04/03 00:26:08;;;;;;;4.70;0.90;;;6.60;72.30;;;;;;2076523;28;20388;-81
2021/04/03 00:27:08;;;;;;;4.90;1.10;;;6.60;72.30;;;;;;2083883;28;20068;-81
2021/04/03 00:28:09;;;;;;;2.92;0.80;;;6.60;72.30;;;;;;2085393;28;20562;-80
2021/04/03 00:29:09;;;;;;;5.70;0.90;;;6.60;72.30;;;;;;2087437;28;20037;-81
2021/04/03 00:30:17;;;;;;;3.38;0.65;;;6.60;72.20;;;;;;2083466;28;20482;-81
2021/04/03 00:31:20;;;;;;;4.30;0.85;;;6.60;72.20;;;;;;2078516;28;20048;-81
2021/04/03 00:32:20;;;;;;;3.30;0.70;;;6.60;72.20;;;;;;2084948;28;20051;-81
2021/04/03 00:33:21;;;;;;;3.90;0.75;;;6.70;72.80;;;;;;2087093;28;20033;-81
2021/04/03 00:34:21;;;;;;;4.30;0.80;;;6.70;72.20;;;;;;2080155;28;20439;-81
2021/04/03 00:35:28;;;;;;;4.50;0.90;;;6.70;72.20;;;;;;2088781;28;20025;-81
2021/04/03 00:36:29;;;;;;;5.97;0.98;;;6.70;72.20;;;;;;2080709;28;20484;-81
2021/04/03 00:37:29;;;;;;;5.70;0.90;;;6.70;72.10;;;;;;2080731;28;20069;-81
2021/04/03 00:38:30;;;;;;;5.00;1.02;;;6.70;72.10;;;;;;2086088;28;20182;-81
2021/04/03 00:39:31;;;;;;;4.03;0.90;;;6.70;72.10;;;;;;2089908;28;20024;-81
2021/04/03 00:40:43;;;;;;;4.43;1.13;;;6.70;72.00;;;;;;2089061;28;20135;-81
2021/04/03 00:41:44;;;;;;;5.00;0.90;;;6.70;72.00;;;;;;2097879;28;20024;-81
2021/04/03 00:42:46;;;;;;;3.38;0.60;;;6.60;71.90;;;;;;2072465;28;20504;-81
2021/04/03 00:43:46;;;;;;;4.68;0.90;;;6.70;72.00;;;;;;2063640;28;20544;-81
2021/04/03 00:44:48;;;;;;;3.17;0.80;;;6.70;72.00;;;;;;2081983;28;20037;-81
2021/04/03 00:45:49;;;;;;;3.20;0.77;;;6.70;72.00;;;;;;2080576;28;20365;-81
2021/04/03 00:46:50;;;;;;;4.55;1.23;;;6.60;72.00;;;;;;2080616;28;20064;-80
2021/04/03 00:47:51;;;;;;;5.78;0.80;;;6.70;72.20;;;;;;2096944;28;20113;-80
2021/04/03 00:48:52;;;;;;;4.65;1.00;;;6.60;71.90;;;;;;2088773;28;20037;-80
2021/04/03 00:49:53;;;;;;;4.50;0.80;;;6.60;71.90;;;;;;2080672;28;20033;-81
2021/04/03 00:50:54;;;;;;;4.50;0.88;;;6.60;72.00;;;;;;2071054;28;20349;-81
2021/04/03 00:51:55;;;;;;;3.50;0.70;;;6.60;72.00;;;;;;2072554;28;20085;-81
2021/04/03 00:52:56;;;;;;;4.00;0.98;;;6.60;72.00;;;;;;2080733;28;20570;-81
2021/04/03 00:53:57;;;;;;;3.88;0.90;;;6.60;72.00;;;;;;2079690;28;20057;-81
2021/04/03 00:54:58;;;;;;;5.05;1.20;;;6.60;71.90;;;;;;2079482;28;20480;-80
2021/04/03 00:56:03;;;;;;;5.93;1.13;;;6.60;71.90;;;;;;2087195;28;20155;-81
2021/04/03 00:57:06;;;;;;;5.90;1.38;;;6.60;71.90;;;;;;2088219;28;20119;-81
2021/04/03 00:58:06;;;;;;;4.30;0.90;;;6.60;71.90;;;;;;2089586;28;20124;-81
2021/04/03 00:59:07;;;;;;;4.57;1.02;;;6.60;71.90;;;;;;2088296;28;20025;-81
2021/04/03 01:00:10;;;;;;;4.10;0.90;;;6.60;72.00;;;;;;2071538;28;20080;-80
2021/04/03 01:01:11;;;;;;;3.22;0.77;;;6.60;72.00;;;;;;2070721;28;20037;-81
2021/04/03 01:02:12;;;;;;;5.53;1.05;;;6.60;72.60;;;;;;2067389;28;20925;-81
2021/04/03 01:03:13;;;;;;;4.63;1.00;;;6.60;72.00;;;;;;2064413;28;20041;-81
2021/04/03 01:04:14;;;;;;;5.45;1.02;;;6.60;71.90;;;;;;2072667;28;20030;-81
2021/04/03 01:05:18;;;;;;;4.65;1.00;;;6.70;72.00;;;;;;2080392;28;20578;-80
2021/04/03 01:06:19;;;;;;;4.28;0.90;;;6.60;71.90;;;;;;2089259;28;20064;-81
2021/04/03 01:07:20;;;;;;;4.68;1.00;;;6.60;71.90;;;;;;2080712;28;20056;-81
2021/04/03 01:08:20;;;;;;;4.60;1.00;;;6.60;71.90;;;;;;2073773;28;20046;-81
2021/04/03 01:09:21;;;;;;;5.95;0.80;;;6.70;71.90;;;;;;2072130;28;20025;-81
2021/04/03 01:10:27;;;;;;;4.13;0.85;;;6.70;71.90;;;;;;2078177;28;20091;-81
2021/04/03 01:11:32;;;;;;;3.65;0.80;;;6.60;71.80;;;;;;2080930;28;20422;-81
2021/04/03 01:12:57;;;;;;;5.00;0.88;;;6.70;71.90;;;;;;2089262;28;20079;-81
2021/04/03 01:14:12;;;;;;;4.55;1.00;;;6.70;71.90;;;;;;2080282;28;20022;-80
2021/04/03 01:15:25;;;;;;;4.75;0.82;;;6.70;71.80;;;;;;2088158;28;20196;-81
2021/04/03 01:16:52;;;;;;;5.45;1.10;;;6.70;71.70;;;;;;2080166;28;20099;-81
2021/04/03 01:18:13;;;;;;;5.30;0.80;;;6.70;71.60;;;;;;2083541;28;20044;-81
2021/04/03 01:19:42;;;;;;;2.83;0.70;;;6.70;71.60;;;;;;2088859;28;20037;-81
2021/04/03 01:21:07;;;;;;;4.65;0.90;;;6.70;72.30;;;;;;2083524;28;20017;-81
2021/04/03 01:22:29;;;;;;;4.82;1.02;;;6.70;71.50;;;;;;2080174;28;20407;-81
2021/04/03 01:23:48;;;;;;;3.40;0.80;;;6.70;71.50;;;;;;2082037;28;20087;-81
2021/04/03 01:25:19;;;;;;;4.65;0.90;;;6.70;71.50;;;;;;2079505;28;20115;-81
2021/04/03 01:26:29;;;;;;;3.55;0.95;;;6.70;71.40;;;;;;2084388;28;20021;-81
2021/04/03 01:27:30;;;;;;;6.28;1.10;;;6.70;71.50;;;;;;2090202;28;20072;-80
2021/04/03 01:29:01;;;;;;;4.63;0.77;;;6.60;72.00;;;;;;2098969;28;20040;-80
2021/04/03 01:30:15;;;;;;;3.03;0.93;;;6.60;71.50;;;;;;2080718;28;20104;-80
2021/04/03 01:31:16;;;;;;;4.35;1.00;;;6.70;71.50;;;;;;2086291;28;20033;-81
2021/04/03 01:32:22;;;;;;;5.32;0.98;;;6.60;71.40;;;;;;2095590;28;20028;-81
2021/04/03 01:33:25;;;;;;;6.32;0.95;;;6.70;71.50;;;;;;2099186;28;20023;-80
2021/04/03 01:34:27;;;;;;;4.07;1.00;;;6.70;71.50;;;;;;2091914;28;20467;-81
2021/04/03 01:35:43;;;;;;;7.55;1.50;;;6.70;71.50;;;;;;2090866;28;20028;-81
2021/04/03 01:36:46;;;;;;;5.63;1.10;;;6.70;71.50;;;;;;2081587;28;20081;-80
2021/04/03 01:37:56;;;;;;;6.20;1.40;;;6.60;71.40;;;;;;2074129;28;20044;-81
2021/04/03 01:39:02;;;;;;;4.55;0.70;;;6.70;71.50;;;;;;2075396;28;20474;-81
2021/04/03 01:40:04;;;;;;;4.75;1.10;;;6.60;71.50;;;;;;2073411;28;20415;-81
2021/04/03 01:41:05;;;;;;;3.40;0.90;;;6.60;71.40;;;;;;2073781;28;20022;-81
2021/04/03 01:42:11;;;;;;;4.88;1.00;;;6.60;72.10;;;;;;2081798;28;20511;-81
2021/04/03 01:43:17;;;;;;;4.22;1.02;;;6.60;71.50;;;;;;2082064;28;20635;-81
2021/04/03 01:44:46;;;;;;;5.57;1.00;;;6.60;71.50;;;;;;2074119;28;20112;-81
2021/04/03 01:45:49;;;;;;;4.70;1.10;;;6.60;71.50;;;;;;2085808;28;20035;-81
2021/04/03 01:46:52;;;;;;;4.88;1.10;;;6.60;71.50;;;;;;2074012;28;20439;-81
2021/04/03 01:47:54;;;;;;;7.15;1.08;;;6.60;71.40;;;;;;2059393;28;20031;-82
2021/04/03 01:48:57;;;;;;;3.60;1.20;;;6.70;71.50;;;;;;2066090;28;20034;-80
2021/04/03 01:49:59;;;;;;;5.82;1.13;;;6.70;71.50;;;;;;2078599;28;20009;-81
2021/04/03 01:51:00;;;;;;;8.13;1.08;;;6.70;71.50;;;;;;2086801;28;20103;-81
2021/04/03 01:52:02;;;;;;;4.90;0.98;;;6.70;71.50;;;;;;2087018;28;20025;-81
2021/04/03 01:53:02;;;;;;;4.88;0.88;;;6.70;71.40;;;;;;2086920;28;20034;-81
2021/04/03 01:54:09;;;;;;;5.25;0.95;;;6.70;71.50;;;;;;2082202;28;20479;-81
2021/04/03 01:55:11;;;;;;;5.05;0.80;;;6.70;71.50;;;;;;2076467;28;20025;-81
2021/04/03 01:56:13;;;;;;;3.22;0.75;;;6.70;71.40;;;;;;2088968;28;20025;-82
2021/04/03 01:57:14;;;;;;;4.43;0.90;;;6.70;71.40;;;;;;2076142;28;20057;-81
2021/04/03 01:58:16;;;;;;;4.45;0.75;;;6.70;71.40;;;;;;2080431;28;20060;-81
2021/04/03 01:59:17;;;;;;;5.75;1.00;;;6.70;71.40;;;;;;2070546;28;20038;-80
2021/04/03 02:00:26;;;;;;;6.53;1.08;;;6.70;71.40;;;;;;2074221;28;20026;-81
2021/04/03 02:01:27;;;;;;;4.18;0.90;;;6.70;71.40;;;;;;2090879;28;20371;-82
2021/04/03 02:02:28;;;;;;;6.18;0.82;;;6.70;72.00;;;;;;2080743;28;20025;-80
2021/04/03 02:03:32;;;;;;;4.75;0.90;;;6.70;71.30;;;;;;2081773;28;20086;-81
2021/04/03 02:04:33;;;;;;;4.75;0.93;;;6.80;71.40;;;;;;2084124;28;20033;-80
2021/04/03 02:05:35;;;;;;;4.95;1.10;;;6.70;71.30;;;;;;2065766;28;20098;-81
2021/04/03 02:06:39;;;;;;;6.72;0.93;;;6.70;71.30;;;;;;2074337;28;20040;-81
2021/04/03 02:07:43;;;;;;;3.60;0.90;;;6.80;71.40;;;;;;2092524;28;20048;-80
2021/04/03 02:08:45;;;;;;;4.65;1.00;;;6.80;71.40;;;;;;2089986;28;20045;-81
2021/04/03 02:09:48;;;;;;;5.35;0.80;;;6.80;71.30;;;;;;2081822;28;20027;-80
2021/04/03 02:10:50;;;;;;;3.78;0.90;;;6.80;71.30;;;;;;2081707;28;20077;-81
2021/04/03 02:11:52;;;;;;;5.00;1.02;;;6.80;71.30;;;;;;2084865;28;20123;-79
2021/04/03 02:12:53;;;;;;;6.85;1.20;;;6.80;71.30;;;;;;2088132;28;20025;-81
2021/04/03 02:13:55;;;;;;;6.03;0.98;;;6.80;71.30;;;;;;2092327;28;20427;-80
2021/04/03 02:14:56;;;;;;;5.72;1.00;;;6.80;71.30;;;;;;2088268;28;20098;-80
2021/04/03 02:16:02;;;;;;;5.70;1.02;;;6.80;71.30;;;;;;2080812;28;20080;-80
2021/04/03 02:17:05;;;;;;;3.63;0.70;;;6.80;71.30;;;;;;2080787;28;20032;-80
2021/04/03 02:18:08;;;;;;;5.10;1.00;;;6.70;71.20;;;;;;2090091;28;20487;-80
2021/04/03 02:19:10;;;;;;;4.72;1.17;;;6.70;71.20;;;;;;2081280;28;20599;-79
2021/04/03 02:20:12;;;;;;;4.85;1.20;;;6.70;71.20;;;;;;2089184;28;20033;-80
2021/04/03 02:21:13;;;;;;;5.25;0.90;;;6.70;71.10;;;;;;2088908;28;20116;-80
2021/04/03 02:22:15;;;;;;;5.28;1.20;;;6.70;71.80;;;;;;2073807;28;20030;-80
2021/04/03 02:23:16;;;;;;;5.10;1.08;;;6.70;71.10;;;;;;2066143;28;20038;-80
2021/04/03 02:24:17;;;;;;;5.68;1.20;;;6.70;71.00;;;;;;2076182;28;20031;-80
2021/04/03 02:25:18;;;;;;;5.18;1.38;;;6.70;71.00;;;;;;2073623;28;20121;-81
2021/04/03 02:26:19;;;;;;;6.00;1.60;;;6.70;70.90;;;;;;2072651;28;20421;-81
2021/04/03 02:27:19;;;;;;;7.30;1.10;;;6.70;70.90;;;;;;2081037;28;20018;-80
2021/04/03 02:28:20;;;;;;;5.80;1.17;;;6.70;70.90;;;;;;2073604;28;20038;-81
2021/04/03 02:29:22;;;;;;;4.20;1.02;;;6.70;71.00;;;;;;2080411;28;20183;-80
2021/04/03 02:30:23;;;;;;;6.63;1.30;;;6.70;70.80;;;;;;2082128;28;20021;-80
2021/04/03 02:31:25;;;;;;;4.88;1.10;;;6.70;70.80;;;;;;2081606;28;20026;-81
2021/04/03 02:32:26;;;;;;;6.50;1.00;;;6.70;70.70;;;;;;2089526;28;20078;-80
2021/04/03 02:33:27;;;;;;;5.55;1.27;;;6.70;70.70;;;;;;2075654;28;20143;-81
2021/04/03 02:34:27;;;;;;;4.15;1.08;;;6.70;70.70;;;;;;2069896;28;20153;-81
2021/04/03 02:35:31;;;;;;;5.13;1.17;;;6.70;70.60;;;;;;2078482;28;20491;-81
2021/04/03 02:36:32;;;;;;;4.72;1.00;;;6.70;70.80;;;;;;2072947;28;20030;-81
2021/04/03 02:37:33;;;;;;;4.07;0.95;;;6.70;70.60;;;;;;2061418;28;20023;-81
2021/04/03 02:38:34;;;;;;;3.53;1.23;;;6.70;70.60;;;;;;2065214;28;20046;-81
2021/04/03 02:39:35;;;;;;;4.55;0.93;;;6.70;70.50;;;;;;2084131;28;20024;-82
2021/04/03 02:40:36;;;;;;;7.43;1.02;;;6.70;70.60;;;;;;2081854;28;20120;-81
2021/04/03 02:41:45;;;;;;;4.68;1.13;;;6.70;70.50;;;;;;2082100;28;20040;-81
2021/04/03 02:43:04;;;;;;;5.75;1.05;;;6.70;70.60;;;;;;2081745;28;20029;-80
2021/04/03 02:44:19;;;;;;;4.20;1.20;;;6.60;70.50;;;;;;2082162;28;20419;-81
2021/04/03 02:45:23;;;;;;;3.80;0.90;;;6.60;70.50;;;;;;2085686;28;20083;-81
2021/04/03 02:46:32;;;;;;;4.22;1.00;;;6.60;70.40;;;;;;2081432;28;20073;-81
2021/04/03 02:47:47;;;;;;;5.30;1.27;;;6.60;70.50;;;;;;2082143;28;20116;-80
2021/04/03 02:48:50;;;;;;;5.35;1.17;;;6.60;71.00;;;;;;2081732;28;20037;-81
2021/04/03 02:50:28;;;;;;;4.53;1.00;;;6.60;70.40;;;;;;2080704;28;20044;-80
2021/04/03 02:51:38;;;;;;;3.15;0.80;;;6.60;70.30;;;;;;2063041;28;20501;-80
2021/04/03 02:52:40;;;;;;;5.45;1.00;;;6.60;70.40;;;;;;2064902;28;20026;-80
2021/04/03 02:53:41;;;;;;;6.72;1.50;;;6.60;70.40;;;;;;2064332;28;20042;-81
2021/04/03 02:54:44;;;;;;;5.13;1.20;;;6.50;70.40;;;;;;2078845;28;20056;-81
2021/04/03 02:55:48;;;;;;;5.38;1.20;;;6.50;70.40;;;;;;2079499;28;20563;-80
2021/04/03 02:56:50;;;;;;;7.00;1.50;;;6.50;71.10;;;;;;2083132;28;20061;-81
2021/04/03 02:57:52;;;;;;;6.10;1.17;;;6.50;70.50;;;;;;2081533;28;20160;-81
2021/04/03 02:58:55;;;;;;;3.47;0.85;;;6.50;70.50;;;;;;2081621;28;20029;-80
2021/04/03 02:59:57;;;;;;;6.07;1.27;;;6.50;70.50;;;;;;2090323;28;20111;-80
2021/04/03 03:00:59;;;;;;;6.63;1.48;;;6.50;70.50;;;;;;2087600;28;20418;-80
2021/04/03 03:02:01;;;;;;;6.70;1.25;;;6.50;70.50;;;;;;2085870;28;20479;-80
2021/04/03 03:03:04;;;;;;;6.00;1.10;;;6.50;70.60;;;;;;2088420;28;20025;-80
2021/04/03 03:04:08;;;;;;;4.70;1.05;;;6.40;70.50;;;;;;2086022;28;20135;-81
2021/04/03 03:05:10;;;;;;;6.25;1.30;;;6.50;70.60;;;;;;2082597;28;20026;-80
2021/04/03 03:06:11;;;;;;;4.50;0.93;;;6.40;70.60;;;;;;2073392;28;20073;-81
2021/04/03 03:07:13;;;;;;;5.65;1.10;;;6.40;70.60;;;;;;2065194;28;20406;-81
2021/04/03 03:08:15;;;;;;;5.97;1.33;;;6.40;70.70;;;;;;2073483;28;20073;-80
2021/04/03 03:09:18;;;;;;;5.40;1.33;;;6.40;70.70;;;;;;2074473;28;20042;-80
2021/04/03 03:10:20;;;;;;;5.47;1.10;;;6.40;70.70;;;;;;2082873;28;20108;-81
2021/04/03 03:11:25;;;;;;;4.95;1.05;;;6.40;70.70;;;;;;2076267;28;20025;-81
2021/04/03 03:12:28;;;;;;;6.97;1.48;;;6.40;70.70;;;;;;2082172;28;20446;-81
2021/04/03 03:13:32;;;;;;;7.35;1.33;;;6.40;70.70;;;;;;2088215;28;20560;-80
2021/04/03 03:14:35;;;;;;;5.88;1.25;;;6.50;70.80;;;;;;2081679;28;20387;-79
2021/04/03 03:15:36;;;;;;;5.32;1.17;;;6.40;70.70;;;;;;2085199;28;20044;-80
2021/04/03 03:16:38;;;;;;;5.05;1.30;;;6.40;70.70;;;;;;2078850;28;20575;-80
2021/04/03 03:17:42;;;;;;;5.53;1.25;;;6.40;70.70;;;;;;2073250;28;20498;-81
2021/04/03 03:18:43;;;;;;;4.90;1.15;;;6.40;70.80;;;;;;2083093;28;20057;-81
2021/04/03 03:19:44;;;;;;;5.15;1.17;;;6.40;70.80;;;;;;2080687;28;20076;-81
2021/04/03 03:20:45;;;;;;;6.20;1.00;;;6.40;70.80;;;;;;2080754;28;20029;-81
2021/04/03 03:21:47;;;;;;;5.80;1.35;;;6.40;70.90;;;;;;2067889;28;20036;-81
2021/04/03 03:22:48;;;;;;;4.63;1.10;;;6.40;70.90;;;;;;2064200;28;20429;-80
2021/04/03 03:23:49;;;;;;;6.85;1.40;;;6.40;70.90;;;;;;2081309;28;20028;-81
2021/04/03 03:24:50;;;;;;;7.10;1.42;;;6.40;70.90;;;;;;2081185;28;20025;-81
2021/04/03 03:25:55;;;;;;;8.35;1.48;;;6.40;71.00;;;;;;2073039;28;20080;-81
2021/04/03 03:26:57;;;;;;;9.05;1.40;;;6.30;71.00;;;;;;2073244;28;20491;-81
2021/04/03 03:27:59;;;;;;;3.45;0.90;;;6.30;71.00;;;;;;2088678;28;20028;-81
2021/04/03 03:29:02;;;;;;;6.30;1.23;;;6.30;71.10;;;;;;2074292;28;20034;-81
2021/04/03 03:30:04;;;;;;;7.30;1.35;;;6.30;71.20;;;;;;2074888;28;20026;-81
2021/04/03 03:31:05;;;;;;;6.05;1.30;;;6.20;71.20;;;;;;2086816;28;20118;-80
2021/04/03 03:32:06;;;;;;;8.45;1.40;;;6.20;71.20;;;;;;2072837;28;21807;-80
2021/04/03 03:33:07;;;;;;;5.30;0.90;;;6.20;71.30;;;;;;2082282;28;20090;-80
2021/04/03 03:34:09;;;;;;;6.43;1.02;;;6.20;71.30;;;;;;2080611;28;20030;-80
2021/04/03 03:35:11;;;;;;;5.43;1.23;;;6.20;71.40;;;;;;2079921;28;20029;-80
2021/04/03 03:36:12;;;;;;;5.88;1.08;;;6.10;71.40;;;;;;2072896;28;20407;-79
2021/04/03 03:37:14;;;;;;;5.97;1.00;;;6.20;71.50;;;;;;2088778;28;20029;-81
2021/04/03 03:38:16;;;;;;;6.15;1.25;;;6.20;71.60;;;;;;2080774;28;20483;-80
2021/04/03 03:39:17;;;;;;;4.93;1.00;;;6.10;71.60;;;;;;2081456;28;20596;-80
2021/04/03 03:40:19;;;;;;;7.57;1.45;;;6.10;71.60;;;;;;2081294;28;20029;-81
2021/04/03 03:41:22;;;;;;;5.93;1.10;;;6.10;71.60;;;;;;2065521;28;20484;-81
2021/04/03 03:42:23;;;;;;;4.75;1.00;;;6.10;71.70;;;;;;2068348;28;20026;-81
2021/04/03 03:43:24;;;;;;;6.60;1.08;;;6.10;71.70;;;;;;2078609;28;20084;-80
2021/04/03 03:44:26;;;;;;;9.00;1.15;;;6.00;71.70;;;;;;2089267;28;20036;-80
2021/04/03 03:45:28;;;;;;;4.53;1.25;;;6.10;71.90;;;;;;2081837;28;20040;-80
2021/04/03 03:46:29;;;;;;;7.82;1.08;;;6.10;71.90;;;;;;2078677;28;20048;-81
2021/04/03 03:47:30;;;;;;;7.93;1.38;;;6.00;71.90;;;;;;2078405;28;20041;-80
2021/04/03 03:48:31;;;;;;;5.88;1.38;;;6.00;72.00;;;;;;2084446;28;20557;-80
2021/04/03 03:49:32;;;;;;;5.95;1.50;;;6.00;72.00;;;;;;2064805;28;20069;-80
2021/04/03 03:50:32;;;;;;;6.95;1.20;;;6.00;72.10;;;;;;2064088;28;20023;-80
2021/04/03 03:51:33;;;;;;;6.18;1.17;;;6.00;72.20;;;;;;2076988;28;20522;-79
2021/04/03 03:52:34;;;;;;;6.85;1.35;;;6.00;72.20;;;;;;2082473;28;20037;-80
2021/04/03 03:53:34;;;;;;;6.60;1.48;;;5.90;72.30;;;;;;2084580;28;20025;-80
2021/04/03 03:54:35;;;;;;;5.15;1.30;;;5.90;72.30;;;;;;2071202;28;20038;-80
2021/04/03 03:55:36;;;;;;;7.55;1.52;;;5.90;72.40;;;;;;2080874;28;20128;-80
2021/04/03 03:56:37;;;;;;;7.93;1.40;;;5.90;72.50;;;;;;2074820;28;20036;-80
2021/04/03 03:57:37;;;;;;;7.50;1.67;;;5.80;72.50;;;;;;2072883;28;20025;-80
2021/04/03 03:58:38;;;;;;;5.65;1.38;;;5.80;72.60;;;;;;2088526;28;20033;-80
2021/04/03 03:59:39;;;;;;;6.50;1.40;;;5.80;72.70;;;;;;2089107;28;20071;-80
2021/04/03 04:00:39;;;;;;;6.78;1.77;;;5.80;72.80;;;;;;2069617;28;20358;-80
2021/04/03 04:01:40;;;;;;;6.57;1.33;;;5.80;72.90;;;;;;2071656;28;20029;-80
2021/04/03 04:02:40;;;;;;;5.93;1.65;;;5.70;72.90;;;;;;2075602;28;20132;-81
2021/04/03 04:03:41;;;;;;;7.15;1.40;;;5.70;73.00;;;;;;2064981;28;20045;-80
2021/04/03 04:04:42;;;;;;;7.82;1.48;;;5.70;73.00;;;;;;2056772;28;20074;-80
2021/04/03 04:05:42;;;;;;;7.97;1.35;;;5.70;73.10;;;;;;2065781;28;20170;-80
2021/04/03 04:06:43;;;;;;;11.02;1.77;;;5.70;73.80;;;;;;2080772;28;20044;-81
2021/04/03 04:07:44;;;;;;;7.82;1.58;;;5.70;73.20;;;;;;2080939;28;20029;-81
2021/04/03 04:08:45;;;;;;;8.20;1.50;;;5.70;73.30;;;;;;2072803;28;20370;-81
2021/04/03 04:09:45;;;;;;;7.32;1.60;;;5.70;73.30;;;;;;2075586;28;20372;-81
2021/04/03 04:10:46;;;;;;;6.95;1.50;;;5.70;73.40;;;;;;2089478;28;20099;-82
2021/04/03 04:11:47;;;;;;;10.27;1.73;;;5.70;73.40;;;;;;2081287;28;20037;-81
2021/04/03 04:12:48;;;;;;;8.48;1.70;;;5.60;74.10;;;;;;2078276;28;20029;-81
2021/04/03 04:13:48;;;;;;;9.75;1.50;;;5.70;73.60;;;;;;2079541;28;21690;-81
2021/04/03 04:14:49;;;;;;;8.15;1.67;;;5.60;74.30;;;;;;2084147;28;20029;-81
2021/04/03 04:15:51;;;;;;;9.18;1.50;;;5.60;73.70;;;;;;2075885;28;20076;-81
2021/04/03 04:16:52;;;;;;;10.27;1.40;;;5.60;73.80;;;;;;2080385;28;20029;-81
2021/04/03 04:17:53;;;;;;;10.75;1.83;;;5.60;74.40;;;;;;2077806;28;20026;-80
2021/04/03 04:18:53;;;;;;;5.95;1.30;;;5.60;73.80;;;;;;2088070;28;20344;-81
2021/04/03 04:19:54;;;;;;;6.13;1.60;;;5.60;73.90;;;;;;2076323;28;20048;-81
2021/04/03 04:20:54;;;;;;;6.93;1.35;;;5.60;74.00;;;;;;2080772;28;20075;-80
2021/04/03 04:21:55;;;;;;;6.50;1.33;;;5.50;73.90;;;;;;2077498;28;20028;-81
2021/04/03 04:22:56;;;;;;;8.50;1.45;;;5.60;74.10;;;;;;2088249;28;20037;-80
2021/04/03 04:23:56;;;;;;;12.10;1.83;;;5.50;74.20;;;;;;2079484;28;20187;-80
2021/04/03 04:24:57;;;;;;;6.65;1.55;;;5.50;74.20;;;;;;2080959;28;20022;-80
2021/04/03 04:25:58;;;;;;;8.25;1.40;;;5.50;74.30;;;;;;2080846;28;20396;-80
2021/04/03 04:27:00;;;;;;;8.52;1.60;;;5.50;74.40;;;;;;2080531;28;20492;-80
2021/04/03 04:28:00;;;;;;;7.68;1.45;;;5.50;74.40;;;;;;2073316;28;20042;-80
2021/04/03 04:29:01;;;;;;;7.43;1.50;;;5.50;74.40;;;;;;2080717;28;20048;-80
2021/04/03 04:30:10;;;;;;;6.68;1.33;;;5.50;74.50;;;;;;2074038;28;20938;-80
2021/04/03 04:31:10;;;;;;;7.90;1.55;;;5.50;74.60;;;;;;2076844;28;20104;-80
2021/04/03 04:32:11;;;;;;;12.43;2.50;;;5.50;74.50;;;;;;2080837;28;20021;-80
2021/04/03 04:33:12;;;;;;;9.10;2.10;;;5.50;74.70;;;;;;2072486;28;20021;-80
2021/04/03 04:34:12;;;;;;;6.70;1.40;;;5.40;74.60;;;;;;2088528;28;20504;-80
2021/04/03 04:35:14;;;;;;;9.02;2.15;;;5.40;74.70;;;;;;2081038;28;20095;-80
2021/04/03 04:36:14;;;;;;;6.88;1.35;;;5.50;74.70;;;;;;2072641;28;20022;-80
2021/04/03 04:37:16;;;;;;;10.38;1.70;;;5.40;74.70;;;;;;2086572;28;20053;-80
2021/04/03 04:38:16;;;;;;;7.18;1.55;;;5.40;74.80;;;;;;2080664;28;21966;-81
2021/04/03 04:39:17;;;;;;;7.35;1.83;;;5.40;74.80;;;;;;2070359;28;20038;-81
2021/04/03 04:40:17;;;;;;;7.22;1.60;;;5.40;74.90;;;;;;2079847;28;20033;-81
2021/04/03 04:41:19;;;;;;;8.65;1.40;;;5.40;75.00;;;;;;2087250;28;20029;-81
2021/04/03 04:42:20;;;;;;;7.20;1.63;;;5.40;75.00;;;;;;2088436;28;20032;-80
2021/04/03 04:43:21;;;;;;;7.63;1.65;;;5.40;75.70;;;;;;2079721;28;20125;-81
2021/04/03 04:44:22;;;;;;;8.13;1.50;;;5.40;75.10;;;;;;2063897;28;20393;-81
2021/04/03 04:45:23;;;;;;;6.47;1.50;;;5.40;75.10;;;;;;2072764;28;20113;-81
2021/04/03 04:46:24;;;;;;;8.05;1.52;;;5.40;75.20;;;;;;2080853;28;20048;-80
2021/04/03 04:47:25;;;;;;;6.95;1.60;;;5.40;75.30;;;;;;2080735;28;20480;-81
2021/04/03 04:48:25;;;;;;;9.30;1.65;;;5.30;75.30;;;;;;2079352;28;20029;-81
2021/04/03 04:49:26;;;;;;;8.68;1.75;;;5.30;75.40;;;;;;2080637;28;20033;-80
2021/04/03 04:50:27;;;;;;;10.18;1.60;;;5.30;75.40;;;;;;2071495;28;20087;-80
2021/04/03 04:51:27;;;;;;;6.45;1.67;;;5.30;75.40;;;;;;2065158;28;20390;-80
2021/04/03 04:52:28;;;;;;;7.90;1.20;;;5.30;75.50;;;;;;2080139;28;20472;-80
2021/04/03 04:53:29;;;;;;;7.28;1.40;;;5.30;75.50;;;;;;2080394;28;20029;-80
2021/04/03 04:54:29;;;;;;;8.13;1.80;;;5.30;75.60;;;;;;2082052;28;20033;-80
2021/04/03 04:55:30;;;;;;;7.55;1.50;;;5.30;75.60;;;;;;2086645;28;20110;-80
2021/04/03 04:56:31;;;;;;;7.95;1.63;;;5.30;75.60;;;;;;2088563;28;20068;-80
2021/04/03 04:57:31;;;;;;;13.10;1.85;;;5.30;75.70;;;;;;2078996;28;20056;-80
2021/04/03 04:58:32;;;;;;;10.85;1.73;;;5.30;75.70;;;;;;2078871;28;20126;-81
2021/04/03 04:59:32;;;;;;;8.23;1.50;;;5.30;75.80;;;;;;2098964;28;20028;-80
2021/04/03 05:00:33;;;;;;;12.43;1.65;;;5.30;75.80;;;;;;2086304;28;20025;-80
2021/04/03 05:01:34;;;;;;;9.90;1.70;;;5.30;75.80;;;;;;2085281;28;20416;-81
2021/04/03 05:02:35;;;;;;;7.93;1.70;;;5.30;75.90;;;;;;2089715;28;20102;-80
2021/04/03 05:03:36;;;;;;;9.77;1.83;;;5.30;75.90;;;;;;2088817;28;20036;-81
2021/04/03 05:04:36;;;;;;;10.18;1.80;;;5.30;75.90;;;;;;2082250;28;20033;-81
2021/04/03 05:05:37;;;;;;;7.32;1.77;;;5.20;75.90;;;;;;2074111;28;20018;-80
2021/04/03 05:06:38;;;;;;;11.55;2.20;;;5.30;76.00;;;;;;2065859;28;20465;-80
2021/04/03 05:07:38;;;;;;;13.13;2.17;;;5.20;76.00;;;;;;2072751;28;20068;-80
2021/04/03 05:08:39;;;;;;;8.02;1.50;;;5.20;76.00;;;;;;2090050;28;20037;-80
2021/04/03 05:09:40;;;;;;;9.18;1.90;;;5.30;76.10;;;;;;2088392;28;20212;-81
2021/04/03 05:10:40;;;;;;;9.32;2.03;;;5.20;76.10;;;;;;2073173;28;20124;-80
2021/04/03 05:11:41;;;;;;;8.32;1.65;;;5.20;76.20;;;;;;2074106;28;20025;-81
2021/04/03 05:12:42;;;;;;;9.65;1.88;;;5.20;76.20;;;;;;2088446;28;21261;-80
2021/04/03 05:13:42;;;;;;;8.75;1.73;;;5.20;76.30;;;;;;2090201;28;20036;-81
2021/04/03 05:14:43;;;;;;;7.43;1.77;;;5.20;76.30;;;;;;2083609;28;20553;-80
2021/04/03 05:15:44;;;;;;;9.15;2.00;;;5.20;76.30;;;;;;2082396;28;20121;-80
2021/04/03 05:16:44;;;;;;;10.30;1.95;;;5.20;76.40;;;;;;2085430;28;20131;-81
2021/04/03 05:17:45;;;;;;;11.45;2.65;;;5.20;76.40;;;;;;2074656;28;20065;-80
2021/04/03 05:18:45;;;;;;;6.78;1.50;;;5.20;76.40;;;;;;2074270;28;20037;-81
2021/04/03 05:19:46;;;;;;;7.25;1.67;;;5.20;76.40;;;;;;2082133;28;20037;-81
2021/04/03 05:20:47;;;;;;;10.95;1.73;;;5.20;76.40;;;;;;2090783;28;20383;-81
2021/04/03 05:21:47;;;;;;;9.35;1.75;;;5.20;76.50;;;;;;2083066;28;20033;-81
2021/04/03 05:22:48;;;;;;;8.13;1.77;;;5.20;76.50;;;;;;2090059;28;20032;-80
2021/04/03 05:23:50;;;;;;;7.22;1.48;;;5.20;76.40;;;;;;2087577;28;20013;-81
2021/04/03 05:24:50;;;;;;;8.40;1.70;;;5.20;76.50;;;;;;2082719;28;20033;-80
2021/04/03 05:25:51;;;;;;;11.32;1.65;;;5.30;76.60;;;;;;2084491;28;20112;-81
2021/04/03 05:26:51;;;;;;;15.95;2.72;;;5.30;76.50;;;;;;2074640;28;20050;-81
2021/04/03 05:27:52;;;;;;;8.40;1.75;;;5.20;76.50;;;;;;2073964;28;20076;-80
2021/04/03 05:28:53;;;;;;;10.93;1.88;;;5.30;76.50;;;;;;2076129;28;20029;-81
2021/04/03 05:29:53;;;;;;;10.05;1.58;;;5.20;76.50;;;;;;2078129;28;20116;-80
2021/04/03 05:30:54;;;;;;;5.63;1.42;;;5.30;76.60;;;;;;2064828;28;20027;-81